sensor_id;sensor_type;location;lat;lon;timestamp;pressure;altitude;pressure_sealevel;temperature;humidity
21096;BME280;10706;49.036;12.112;2023-07-20T00:01:39;97379.56;;;17.80;81.37
21096;BME280;10706;49.036;12.112;2023-07-20T00:04:06;97376.34;;;17.78;81.63
21096;BME280;10706;49.036;12.112;2023-07-20T00:06:32;97375.50;;;17.77;81.52
21096;BME280;10706;49.036;12.112;2023-07-20T00:08:57;97374.22;;;17.75;81.46
21096;BME280;10706;49.036;12.112;2023-07-20T00:11:26;97373.47;;;17.69;82.04
21096;BME280;10706;49.036;12.112;2023-07-20T00:13:53;97375.38;;;17.68;82.13
21096;BME280;10706;49.036;12.112;2023-07-20T00:16:19;97367.84;;;17.65;81.90
21096;BME280;10706;49.036;12.112;2023-07-20T00:18:45;97373.53;;;17.64;82.56
21096;BME280;10706;49.036;12.112;2023-07-20T00:21:11;97369.81;;;17.60;81.97
21096;BME280;10706;49.036;12.112;2023-07-20T00:23:38;97374.97;;;17.56;82.49
21096;BME280;10706;49.036;12.112;2023-07-20T00:26:03;97376.88;;;17.56;82.58
21096;BME280;10706;49.036;12.112;2023-07-20T00:28:29;97374.75;;;17.53;82.61
21096;BME280;10706;49.036;12.112;2023-07-20T00:30:55;97374.75;;;17.53;82.69
21096;BME280;10706;49.036;12.112;2023-07-20T00:33:21;97372.28;;;17.56;82.07
21096;BME280;10706;49.036;12.112;2023-07-20T00:35:47;97370.38;;;17.57;82.72
21096;BME280;10706;49.036;12.112;2023-07-20T00:38:12;97376.16;;;17.50;82.42
21096;BME280;10706;49.036;12.112;2023-07-20T00:40:39;97363.50;;;17.45;82.88
21096;BME280;10706;49.036;12.112;2023-07-20T00:43:05;97373.88;;;17.38;83.16
21096;BME280;10706;49.036;12.112;2023-07-20T00:45:31;97374.16;;;17.37;83.21
21096;BME280;10706;49.036;12.112;2023-07-20T00:47:58;97373.03;;;17.38;83.36
21096;BME280;10706;49.036;12.112;2023-07-20T00:50:28;97381.00;;;17.29;83.29
21096;BME280;10706;49.036;12.112;2023-07-20T00:52:58;97384.75;;;17.28;83.88
21096;BME280;10706;49.036;12.112;2023-07-20T00:55:25;97385.56;;;17.28;83.85
21096;BME280;10706;49.036;12.112;2023-07-20T00:57:52;97386.94;;;17.26;83.88
21096;BME280;10706;49.036;12.112;2023-07-20T01:00:18;97394.47;;;17.29;84.01
21096;BME280;10706;49.036;12.112;2023-07-20T01:02:45;97387.47;;;17.28;84.13
21096;BME280;10706;49.036;12.112;2023-07-20T01:05:11;97389.00;;;17.34;83.88
21096;BME280;10706;49.036;12.112;2023-07-20T01:07:53;97392.44;;;17.40;83.63
21096;BME280;10706;49.036;12.112;2023-07-20T01:11:13;97390.63;;;17.35;83.51
21096;BME280;10706;49.036;12.112;2023-07-20T01:13:18;97387.88;;;17.40;83.29
21096;BME280;10706;49.036;12.112;2023-07-20T01:15:57;97384.06;;;17.41;83.42
21096;BME280;10706;49.036;12.112;2023-07-20T01:18:25;97380.56;;;17.41;83.22
21096;BME280;10706;49.036;12.112;2023-07-20T01:20:55;97377.66;;;17.37;83.15
21096;BME280;10706;49.036;12.112;2023-07-20T01:31:32;97360.72;;;17.32;82.99
21096;BME280;10706;49.036;12.112;2023-07-20T01:34:01;97363.78;;;17.25;83.49
21096;BME280;10706;49.036;12.112;2023-07-20T01:36:30;97364.34;;;17.22;83.37
21096;BME280;10706;49.036;12.112;2023-07-20T01:38:59;97359.44;;;17.24;83.85
21096;BME280;10706;49.036;12.112;2023-07-20T01:41:24;97365.59;;;17.29;83.37
21096;BME280;10706;49.036;12.112;2023-07-20T01:43:50;97375.31;;;17.31;83.08
21096;BME280;10706;49.036;12.112;2023-07-20T01:46:16;97375.81;;;17.33;83.63
21096;BME280;10706;49.036;12.112;2023-07-20T01:48:42;97378.81;;;17.31;83.46
21096;BME280;10706;49.036;12.112;2023-07-20T01:51:08;97381.00;;;17.29;83.70
21096;BME280;10706;49.036;12.112;2023-07-20T01:53:34;97379.31;;;17.33;83.58
21096;BME280;10706;49.036;12.112;2023-07-20T01:55:59;97381.13;;;17.38;83.29
21096;BME280;10706;49.036;12.112;2023-07-20T01:58:25;97380.63;;;17.36;83.54
21096;BME280;10706;49.036;12.112;2023-07-20T02:00:51;97382.59;;;17.30;83.63
21096;BME280;10706;49.036;12.112;2023-07-20T02:03:17;97382.06;;;17.28;83.73
21096;BME280;10706;49.036;12.112;2023-07-20T02:05:43;97386.38;;;17.29;83.81
21096;BME280;10706;49.036;12.112;2023-07-20T02:08:09;97388.25;;;17.28;84.05
21096;BME280;10706;49.036;12.112;2023-07-20T02:10:36;97385.88;;;17.27;83.81
21096;BME280;10706;49.036;12.112;2023-07-20T02:13:01;97389.13;;;17.24;83.87
21096;BME280;10706;49.036;12.112;2023-07-20T02:15:27;97391.88;;;17.19;83.95
21096;BME280;10706;49.036;12.112;2023-07-20T02:17:54;97394.66;;;17.14;84.19
21096;BME280;10706;49.036;12.112;2023-07-20T02:20:20;97391.38;;;17.17;84.75
21096;BME280;10706;49.036;12.112;2023-07-20T02:22:46;97383.88;;;17.14;84.47
21096;BME280;10706;49.036;12.112;2023-07-20T02:25:12;97384.44;;;17.10;84.87
21096;BME280;10706;49.036;12.112;2023-07-20T02:27:38;97373.72;;;17.00;85.50
21096;BME280;10706;49.036;12.112;2023-07-20T02:30:05;97383.44;;;17.01;85.67
21096;BME280;10706;49.036;12.112;2023-07-20T02:32:31;97385.28;;;17.06;85.78
21096;BME280;10706;49.036;12.112;2023-07-20T02:34:58;97386.09;;;17.06;85.52
21096;BME280;10706;49.036;12.112;2023-07-20T02:37:24;97388.66;;;17.17;84.75
21096;BME280;10706;49.036;12.112;2023-07-20T02:39:50;97393.03;;;17.13;84.86
21096;BME280;10706;49.036;12.112;2023-07-20T02:42:16;97401.66;;;17.15;85.20
21096;BME280;10706;49.036;12.112;2023-07-20T02:44:42;97391.09;;;17.18;84.71
21096;BME280;10706;49.036;12.112;2023-07-20T02:47:07;97397.75;;;17.26;84.85
21096;BME280;10706;49.036;12.112;2023-07-20T02:49:34;97399.41;;;17.22;84.69
21096;BME280;10706;49.036;12.112;2023-07-20T02:51:59;97403.38;;;17.29;84.23
21096;BME280;10706;49.036;12.112;2023-07-20T02:54:26;97410.41;;;17.31;84.05
21096;BME280;10706;49.036;12.112;2023-07-20T02:56:51;97409.75;;;17.39;83.75
21096;BME280;10706;49.036;12.112;2023-07-20T02:59:17;97407.84;;;17.39;83.75
21096;BME280;10706;49.036;12.112;2023-07-20T03:01:44;97408.22;;;17.33;83.96
21096;BME280;10706;49.036;12.112;2023-07-20T03:04:10;97409.56;;;17.30;83.55
21096;BME280;10706;49.036;12.112;2023-07-20T03:06:36;97402.34;;;17.25;84.23
21096;BME280;10706;49.036;12.112;2023-07-20T03:09:03;97395.03;;;17.26;83.96
21096;BME280;10706;49.036;12.112;2023-07-20T03:11:29;97394.41;;;17.10;84.39
21096;BME280;10706;49.036;12.112;2023-07-20T03:13:55;97399.47;;;17.17;84.20
21096;BME280;10706;49.036;12.112;2023-07-20T03:16:23;97408.53;;;17.26;83.28
21096;BME280;10706;49.036;12.112;2023-07-20T03:18:50;97402.34;;;17.25;83.43
21096;BME280;10706;49.036;12.112;2023-07-20T03:21:17;97408.78;;;17.29;83.07
21096;BME280;10706;49.036;12.112;2023-07-20T03:23:43;97402.00;;;17.32;83.26
21096;BME280;10706;49.036;12.112;2023-07-20T03:26:09;97401.94;;;17.37;82.90
21096;BME280;10706;49.036;12.112;2023-07-20T03:28:36;97400.25;;;17.41;82.67
21096;BME280;10706;49.036;12.112;2023-07-20T03:31:02;97409.47;;;17.40;82.37
21096;BME280;10706;49.036;12.112;2023-07-20T03:33:29;97403.94;;;17.51;81.68
21096;BME280;10706;49.036;12.112;2023-07-20T03:35:55;97403.09;;;17.55;81.03
21096;BME280;10706;49.036;12.112;2023-07-20T03:38:22;97396.81;;;17.60;80.50
21096;BME280;10706;49.036;12.112;2023-07-20T03:40:57;97406.06;;;17.54;81.00
21096;BME280;10706;49.036;12.112;2023-07-20T03:43:24;97400.16;;;17.52;80.96
21096;BME280;10706;49.036;12.112;2023-07-20T03:45:51;97403.66;;;17.52;81.15
21096;BME280;10706;49.036;12.112;2023-07-20T03:48:19;97407.16;;;17.53;80.39
21096;BME280;10706;49.036;12.112;2023-07-20T03:50:47;97408.03;;;17.48;80.68
21096;BME280;10706;49.036;12.112;2023-07-20T03:53:13;97405.84;;;17.50;81.04
21096;BME280;10706;49.036;12.112;2023-07-20T03:55:41;97414.97;;;17.54;80.67
21096;BME280;10706;49.036;12.112;2023-07-20T03:58:07;97415.75;;;17.55;80.75
21096;BME280;10706;49.036;12.112;2023-07-20T04:00:34;97421.16;;;17.55;80.85
21096;BME280;10706;49.036;12.112;2023-07-20T04:03:00;97417.91;;;17.58;80.50
21096;BME280;10706;49.036;12.112;2023-07-20T04:05:26;97424.38;;;17.57;80.60
21096;BME280;10706;49.036;12.112;2023-07-20T04:07:52;97416.81;;;17.59;79.79
21096;BME280;10706;49.036;12.112;2023-07-20T04:10:19;97428.94;;;17.61;79.81
21096;BME280;10706;49.036;12.112;2023-07-20T04:12:45;97431.81;;;17.70;79.41
21096;BME280;10706;49.036;12.112;2023-07-20T04:15:13;97437.13;;;17.75;79.31
21096;BME280;10706;49.036;12.112;2023-07-20T04:17:39;97431.38;;;17.82;79.61
21096;BME280;10706;49.036;12.112;2023-07-20T04:20:07;97437.84;;;17.81;78.72
21096;BME280;10706;49.036;12.112;2023-07-20T04:22:33;97445.09;;;17.91;78.39
21096;BME280;10706;49.036;12.112;2023-07-20T04:24:59;97442.00;;;17.97;78.06
21096;BME280;10706;49.036;12.112;2023-07-20T04:27:25;97443.91;;;17.97;77.67
21096;BME280;10706;49.036;12.112;2023-07-20T04:29:52;97439.19;;;18.08;77.22
21096;BME280;10706;49.036;12.112;2023-07-20T04:32:17;97442.53;;;18.18;77.04
21096;BME280;10706;49.036;12.112;2023-07-20T04:34:43;97442.53;;;18.18;75.91
21096;BME280;10706;49.036;12.112;2023-07-20T04:37:09;97440.50;;;18.29;76.06
21096;BME280;10706;49.036;12.112;2023-07-20T04:39:37;97442.63;;;18.13;77.62
21096;BME280;10706;49.036;12.112;2023-07-20T04:42:03;97447.63;;;18.01;78.21
21096;BME280;10706;49.036;12.112;2023-07-20T04:44:29;97447.25;;;17.88;79.07
21096;BME280;10706;49.036;12.112;2023-07-20T04:46:55;97448.81;;;17.95;78.97
21096;BME280;10706;49.036;12.112;2023-07-20T04:49:21;97456.19;;;18.08;78.69
21096;BME280;10706;49.036;12.112;2023-07-20T04:51:47;97452.03;;;18.16;78.15
21096;BME280;10706;49.036;12.112;2023-07-20T04:54:12;97448.16;;;18.22;78.41
21096;BME280;10706;49.036;12.112;2023-07-20T04:56:39;97455.97;;;18.23;77.57
21096;BME280;10706;49.036;12.112;2023-07-20T04:59:05;97453.50;;;18.27;77.28
21096;BME280;10706;49.036;12.112;2023-07-20T05:01:31;97455.75;;;18.39;76.96
21096;BME280;10706;49.036;12.112;2023-07-20T05:03:57;97462.19;;;18.43;76.91
21096;BME280;10706;49.036;12.112;2023-07-20T05:06:22;97457.88;;;18.61;76.16
21096;BME280;10706;49.036;12.112;2023-07-20T05:08:48;97459.56;;;18.57;74.74
21096;BME280;10706;49.036;12.112;2023-07-20T05:11:14;97457.72;;;18.52;75.36
21096;BME280;10706;49.036;12.112;2023-07-20T05:13:40;97460.59;;;18.42;75.16
21096;BME280;10706;49.036;12.112;2023-07-20T05:16:06;97468.03;;;18.50;72.96
21096;BME280;10706;49.036;12.112;2023-07-20T05:18:32;97467.75;;;18.33;73.42
21096;BME280;10706;49.036;12.112;2023-07-20T05:20:58;97471.47;;;18.37;73.23
21096;BME280;10706;49.036;12.112;2023-07-20T05:23:24;97480.91;;;18.58;73.02
21096;BME280;10706;49.036;12.112;2023-07-20T05:25:57;97465.91;;;18.66;72.51
21096;BME280;10706;49.036;12.112;2023-07-20T05:28:26;97467.50;;;18.67;72.74
21096;BME280;10706;49.036;12.112;2023-07-20T05:30:52;97468.25;;;18.54;73.77
21096;BME280;10706;49.036;12.112;2023-07-20T05:33:20;97462.91;;;18.68;73.52
21096;BME280;10706;49.036;12.112;2023-07-20T05:35:46;97468.09;;;18.64;74.12
21096;BME280;10706;49.036;12.112;2023-07-20T05:38:12;97465.91;;;18.85;74.02
21096;BME280;10706;49.036;12.112;2023-07-20T05:40:42;97477.00;;;18.83;73.63
21096;BME280;10706;49.036;12.112;2023-07-20T05:43:11;97479.03;;;18.92;73.73
21096;BME280;10706;49.036;12.112;2023-07-20T05:45:37;97472.41;;;18.84;74.17
21096;BME280;10706;49.036;12.112;2023-07-20T05:48:03;97477.66;;;18.94;74.15
21096;BME280;10706;49.036;12.112;2023-07-20T05:50:28;97480.88;;;18.96;73.87
21096;BME280;10706;49.036;12.112;2023-07-20T05:52:57;97484.94;;;19.13;73.66
21096;BME280;10706;49.036;12.112;2023-07-20T05:55:22;97491.56;;;19.20;73.82
21096;BME280;10706;49.036;12.112;2023-07-20T05:57:48;97493.84;;;19.13;74.02
21096;BME280;10706;49.036;12.112;2023-07-20T06:00:15;97502.44;;;19.01;74.59
21096;BME280;10706;49.036;12.112;2023-07-20T06:02:41;97493.38;;;19.25;74.01
21096;BME280;10706;49.036;12.112;2023-07-20T06:05:08;97498.84;;;19.53;73.55
21096;BME280;10706;49.036;12.112;2023-07-20T06:07:37;97505.44;;;19.47;73.88
21096;BME280;10706;49.036;12.112;2023-07-20T06:10:05;97494.66;;;19.74;72.23
21096;BME280;10706;49.036;12.112;2023-07-20T06:12:31;97493.22;;;19.63;72.34
21096;BME280;10706;49.036;12.112;2023-07-20T06:15:03;97499.53;;;19.45;72.50
21096;BME280;10706;49.036;12.112;2023-07-20T06:17:29;97496.34;;;19.23;72.92
21096;BME280;10706;49.036;12.112;2023-07-20T06:19:55;97509.03;;;19.42;72.80
21096;BME280;10706;49.036;12.112;2023-07-20T06:22:21;97500.81;;;19.33;72.93
21096;BME280;10706;49.036;12.112;2023-07-20T06:24:46;97504.41;;;19.42;71.84
21096;BME280;10706;49.036;12.112;2023-07-20T06:27:12;97503.41;;;19.38;71.36
21096;BME280;10706;49.036;12.112;2023-07-20T06:29:38;97503.63;;;19.42;70.40
21096;BME280;10706;49.036;12.112;2023-07-20T06:32:05;97507.03;;;19.48;71.13
21096;BME280;10706;49.036;12.112;2023-07-20T06:34:31;97501.69;;;19.75;70.27
21096;BME280;10706;49.036;12.112;2023-07-20T06:36:56;97506.31;;;19.75;67.47
21096;BME280;10706;49.036;12.112;2023-07-20T06:39:22;97503.59;;;19.89;67.96
21096;BME280;10706;49.036;12.112;2023-07-20T06:41:48;97505.00;;;20.00;67.46
21096;BME280;10706;49.036;12.112;2023-07-20T06:44:14;97508.91;;;19.94;66.83
21096;BME280;10706;49.036;12.112;2023-07-20T06:46:39;97510.72;;;20.12;67.20
21096;BME280;10706;49.036;12.112;2023-07-20T06:49:08;97508.16;;;20.30;66.47
21096;BME280;10706;49.036;12.112;2023-07-20T06:51:34;97510.59;;;20.17;66.91
21096;BME280;10706;49.036;12.112;2023-07-20T06:54:01;97521.06;;;20.10;65.81
21096;BME280;10706;49.036;12.112;2023-07-20T06:56:27;97519.81;;;20.44;66.01
21096;BME280;10706;49.036;12.112;2023-07-20T06:58:52;97513.31;;;20.68;64.90
21096;BME280;10706;49.036;12.112;2023-07-20T07:01:18;97507.78;;;20.73;64.70
21096;BME280;10706;49.036;12.112;2023-07-20T07:03:44;97502.34;;;20.73;64.72
21096;BME280;10706;49.036;12.112;2023-07-20T07:06:10;97506.41;;;20.62;65.62
21096;BME280;10706;49.036;12.112;2023-07-20T07:08:36;97506.13;;;20.63;65.93
21096;BME280;10706;49.036;12.112;2023-07-20T07:11:02;97508.97;;;20.81;64.06
21096;BME280;10706;49.036;12.112;2023-07-20T07:13:28;97512.59;;;20.76;64.13
21096;BME280;10706;49.036;12.112;2023-07-20T07:15:53;97504.09;;;20.69;65.57
21096;BME280;10706;49.036;12.112;2023-07-20T07:18:19;97510.00;;;20.71;63.66
21096;BME280;10706;49.036;12.112;2023-07-20T07:20:55;97513.53;;;20.94;62.59
21096;BME280;10706;49.036;12.112;2023-07-20T07:23:20;97504.69;;;20.88;62.65
21096;BME280;10706;49.036;12.112;2023-07-20T07:25:46;97508.53;;;20.51;63.22
21096;BME280;10706;49.036;12.112;2023-07-20T07:28:13;97513.81;;;20.70;64.03
21096;BME280;10706;49.036;12.112;2023-07-20T07:30:39;97504.28;;;20.95;61.60
21096;BME280;10706;49.036;12.112;2023-07-20T07:33:05;97512.34;;;21.09;61.01
21096;BME280;10706;49.036;12.112;2023-07-20T07:35:30;97508.84;;;21.08;60.40
21096;BME280;10706;49.036;12.112;2023-07-20T07:37:56;97515.16;;;21.26;60.34
21096;BME280;10706;49.036;12.112;2023-07-20T07:40:22;97511.97;;;21.47;58.82
21096;BME280;10706;49.036;12.112;2023-07-20T07:42:47;97523.81;;;21.51;58.18
21096;BME280;10706;49.036;12.112;2023-07-20T07:45:14;97516.09;;;21.76;56.55
21096;BME280;10706;49.036;12.112;2023-07-20T07:47:40;97520.97;;;21.56;56.61
21096;BME280;10706;49.036;12.112;2023-07-20T07:50:06;97517.09;;;21.03;58.14
21096;BME280;10706;49.036;12.112;2023-07-20T07:52:32;97523.88;;;20.92;58.99
21096;BME280;10706;49.036;12.112;2023-07-20T07:54:58;97526.03;;;21.04;58.61
21096;BME280;10706;49.036;12.112;2023-07-20T07:57:23;97524.94;;;21.27;56.97
21096;BME280;10706;49.036;12.112;2023-07-20T07:59:49;97522.88;;;21.55;56.32
21096;BME280;10706;49.036;12.112;2023-07-20T08:02:15;97523.38;;;21.35;55.91
21096;BME280;10706;49.036;12.112;2023-07-20T08:04:41;97526.16;;;21.44;56.10
21096;BME280;10706;49.036;12.112;2023-07-20T08:07:07;97527.84;;;21.31;56.73
21096;BME280;10706;49.036;12.112;2023-07-20T08:09:32;97526.97;;;21.76;54.30
21096;BME280;10706;49.036;12.112;2023-07-20T08:11:58;97521.75;;;21.57;52.77
21096;BME280;10706;49.036;12.112;2023-07-20T08:14:25;97526.03;;;21.80;53.54
21096;BME280;10706;49.036;12.112;2023-07-20T08:16:50;97527.72;;;21.67;53.65
21096;BME280;10706;49.036;12.112;2023-07-20T08:19:17;97529.38;;;21.46;54.44
21096;BME280;10706;49.036;12.112;2023-07-20T08:21:42;97538.69;;;21.31;54.95
21096;BME280;10706;49.036;12.112;2023-07-20T08:24:08;97534.31;;;21.44;55.90
21096;BME280;10706;49.036;12.112;2023-07-20T08:26:34;97529.91;;;21.57;54.38
21096;BME280;10706;49.036;12.112;2023-07-20T08:29:00;97536.91;;;21.26;52.95
21096;BME280;10706;49.036;12.112;2023-07-20T08:31:25;97541.72;;;21.29;54.38
21096;BME280;10706;49.036;12.112;2023-07-20T08:33:53;97536.19;;;21.66;52.83
21096;BME280;10706;49.036;12.112;2023-07-20T08:36:19;97534.06;;;21.85;52.59
21096;BME280;10706;49.036;12.112;2023-07-20T08:38:45;97541.81;;;21.69;51.44
21096;BME280;10706;49.036;12.112;2023-07-20T08:41:11;97525.09;;;21.85;50.29
21096;BME280;10706;49.036;12.112;2023-07-20T08:43:38;97539.69;;;21.98;51.14
21096;BME280;10706;49.036;12.112;2023-07-20T08:46:08;97533.97;;;22.17;51.21
21096;BME280;10706;49.036;12.112;2023-07-20T08:48:35;97536.31;;;22.32;48.50
21096;BME280;10706;49.036;12.112;2023-07-20T08:51:02;97535.03;;;22.56;49.44
21096;BME280;10706;49.036;12.112;2023-07-20T08:53:31;97533.63;;;22.67;47.93
21096;BME280;10706;49.036;12.112;2023-07-20T08:55:58;97543.06;;;22.61;47.66
21096;BME280;10706;49.036;12.112;2023-07-20T08:58:25;97542.72;;;22.71;47.08
21096;BME280;10706;49.036;12.112;2023-07-20T09:00:52;97537.13;;;22.76;43.91
21096;BME280;10706;49.036;12.112;2023-07-20T09:03:19;97540.38;;;22.96;44.77
21096;BME280;10706;49.036;12.112;2023-07-20T09:05:45;97544.50;;;22.67;44.46
21096;BME280;10706;49.036;12.112;2023-07-20T09:08:11;97531.88;;;22.62;44.48
21096;BME280;10706;49.036;12.112;2023-07-20T09:10:37;97533.44;;;22.63;44.27
21096;BME280;10706;49.036;12.112;2023-07-20T09:13:02;97532.63;;;22.54;41.95
21096;BME280;10706;49.036;12.112;2023-07-20T09:15:29;97533.03;;;22.21;42.65
21096;BME280;10706;49.036;12.112;2023-07-20T09:17:55;97523.69;;;22.45;43.72
21096;BME280;10706;49.036;12.112;2023-07-20T09:20:21;97524.34;;;22.68;42.33
21096;BME280;10706;49.036;12.112;2023-07-20T09:22:47;97528.19;;;22.84;41.60
21096;BME280;10706;49.036;12.112;2023-07-20T09:25:17;97526.59;;;22.92;41.33
21096;BME280;10706;49.036;12.112;2023-07-20T09:27:47;97535.72;;;22.96;40.61
21096;BME280;10706;49.036;12.112;2023-07-20T09:30:15;97522.91;;;23.05;40.73
21096;BME280;10706;49.036;12.112;2023-07-20T09:32:49;97520.97;;;23.15;39.12
21096;BME280;10706;49.036;12.112;2023-07-20T09:35:22;97511.19;;;23.22;40.56
21096;BME280;10706;49.036;12.112;2023-07-20T09:37:59;97520.25;;;23.53;40.84
21096;BME280;10706;49.036;12.112;2023-07-20T09:40:26;97512.94;;;23.74;39.07
21096;BME280;10706;49.036;12.112;2023-07-20T09:42:54;97519.25;;;23.57;38.40
21096;BME280;10706;49.036;12.112;2023-07-20T09:45:42;97511.44;;;23.47;38.52
21096;BME280;10706;49.036;12.112;2023-07-20T09:48:10;97516.28;;;23.33;39.66
21096;BME280;10706;49.036;12.112;2023-07-20T09:50:49;97507.88;;;23.55;39.50
21096;BME280;10706;49.036;12.112;2023-07-20T09:53:17;97504.25;;;23.42;40.25
21096;BME280;10706;49.036;12.112;2023-07-20T09:55:45;97500.94;;;23.28;39.53
21096;BME280;10706;49.036;12.112;2023-07-20T09:58:12;97500.13;;;23.27;39.94
21096;BME280;10706;49.036;12.112;2023-07-20T10:00:39;97506.38;;;23.02;39.16
21096;BME280;10706;49.036;12.112;2023-07-20T10:03:06;97512.97;;;22.83;37.95
21096;BME280;10706;49.036;12.112;2023-07-20T10:05:34;97506.88;;;22.86;38.75
21096;BME280;10706;49.036;12.112;2023-07-20T10:08:02;97513.25;;;23.34;39.00
21096;BME280;10706;49.036;12.112;2023-07-20T10:10:31;97506.34;;;23.37;39.00
21096;BME280;10706;49.036;12.112;2023-07-20T10:12:59;97506.06;;;23.21;39.26
21096;BME280;10706;49.036;12.112;2023-07-20T10:15:33;97500.63;;;23.21;39.68
21096;BME280;10706;49.036;12.112;2023-07-20T10:18:12;97504.66;;;23.71;38.05
21096;BME280;10706;49.036;12.112;2023-07-20T10:20:43;97506.63;;;23.53;38.33
21096;BME280;10706;49.036;12.112;2023-07-20T10:23:10;97503.97;;;23.74;37.52
21096;BME280;10706;49.036;12.112;2023-07-20T10:25:37;97489.56;;;23.82;36.82
21096;BME280;10706;49.036;12.112;2023-07-20T10:28:07;97496.75;;;23.86;37.84
21096;BME280;10706;49.036;12.112;2023-07-20T10:30:39;97491.59;;;23.85;35.61
21096;BME280;10706;49.036;12.112;2023-07-20T10:33:05;97490.09;;;23.96;35.79
21096;BME280;10706;49.036;12.112;2023-07-20T10:36:00;97489.22;;;23.75;34.30
21096;BME280;10706;49.036;12.112;2023-07-20T10:38:53;97479.38;;;23.91;36.18
21096;BME280;10706;49.036;12.112;2023-07-20T10:41:34;97487.84;;;24.28;34.44
21096;BME280;10706;49.036;12.112;2023-07-20T10:44:05;97480.09;;;24.60;34.39
21096;BME280;10706;49.036;12.112;2023-07-20T10:49:06;97481.44;;;24.54;35.11
21096;BME280;10706;49.036;12.112;2023-07-20T10:56:56;97473.88;;;24.00;34.47
21096;BME280;10706;49.036;12.112;2023-07-20T11:01:57;97476.25;;;24.61;33.26
21096;BME280;10706;49.036;12.112;2023-07-20T11:04:48;97468.19;;;24.14;34.65
21096;BME280;10706;49.036;12.112;2023-07-20T11:07:38;97469.38;;;24.25;34.08
21096;BME280;10706;49.036;12.112;2023-07-20T11:10:14;97464.97;;;24.83;32.22
21096;BME280;10706;49.036;12.112;2023-07-20T11:12:40;97471.53;;;24.82;33.80
21096;BME280;10706;49.036;12.112;2023-07-20T11:15:07;97454.69;;;25.47;34.48
21096;BME280;10706;49.036;12.112;2023-07-20T11:17:33;97462.06;;;25.47;32.79
21096;BME280;10706;49.036;12.112;2023-07-20T11:20:01;97468.19;;;25.31;32.88
21096;BME280;10706;49.036;12.112;2023-07-20T11:22:27;97468.81;;;25.49;32.93
21096;BME280;10706;49.036;12.112;2023-07-20T11:24:57;97474.53;;;24.90;32.72
21096;BME280;10706;49.036;12.112;2023-07-20T11:27:23;97461.28;;;24.79;32.17
21096;BME280;10706;49.036;12.112;2023-07-20T11:29:49;97457.44;;;24.38;33.43
21096;BME280;10706;49.036;12.112;2023-07-20T11:32:23;97456.69;;;24.50;34.31
21096;BME280;10706;49.036;12.112;2023-07-20T11:34:49;97448.06;;;25.02;33.29
21096;BME280;10706;49.036;12.112;2023-07-20T11:37:16;97441.97;;;24.84;32.86
21096;BME280;10706;49.036;12.112;2023-07-20T11:39:42;97437.81;;;25.57;31.73
21096;BME280;10706;49.036;12.112;2023-07-20T11:42:08;97433.94;;;25.83;32.03
21096;BME280;10706;49.036;12.112;2023-07-20T11:44:34;97434.16;;;25.53;31.65
21096;BME280;10706;49.036;12.112;2023-07-20T11:47:09;97440.31;;;25.75;34.52
21096;BME280;10706;49.036;12.112;2023-07-20T11:49:41;97427.09;;;25.52;32.04
21096;BME280;10706;49.036;12.112;2023-07-20T11:52:11;97435.31;;;25.40;31.73
21096;BME280;10706;49.036;12.112;2023-07-20T11:54:40;97420.94;;;25.31;32.70
21096;BME280;10706;49.036;12.112;2023-07-20T11:57:06;97427.44;;;25.51;30.84
21096;BME280;10706;49.036;12.112;2023-07-20T11:59:33;97431.44;;;25.78;30.31
21096;BME280;10706;49.036;12.112;2023-07-20T12:02:02;97430.34;;;26.72;29.17
21096;BME280;10706;49.036;12.112;2023-07-20T12:04:29;97411.63;;;27.66;28.80
21096;BME280;10706;49.036;12.112;2023-07-20T12:06:55;97424.84;;;28.47;28.71
21096;BME280;10706;49.036;12.112;2023-07-20T12:09:21;97414.88;;;29.01;26.19
21096;BME280;10706;49.036;12.112;2023-07-20T12:11:49;97408.69;;;30.00;25.17
21096;BME280;10706;49.036;12.112;2023-07-20T12:14:16;97407.50;;;29.25;24.88
21096;BME280;10706;49.036;12.112;2023-07-20T12:16:42;97404.75;;;28.08;26.27
21096;BME280;10706;49.036;12.112;2023-07-20T12:19:10;97399.91;;;28.01;27.36
21096;BME280;10706;49.036;12.112;2023-07-20T12:21:40;97403.59;;;27.58;27.54
21096;BME280;10706;49.036;12.112;2023-07-20T12:24:10;97396.28;;;29.37;24.52
21096;BME280;10706;49.036;12.112;2023-07-20T12:26:36;97393.78;;;30.99;23.74
21096;BME280;10706;49.036;12.112;2023-07-20T12:29:03;97396.31;;;31.19;23.00
21096;BME280;10706;49.036;12.112;2023-07-20T12:31:29;97388.34;;;31.51;21.66
21096;BME280;10706;49.036;12.112;2023-07-20T12:33:57;97391.81;;;31.00;23.79
21096;BME280;10706;49.036;12.112;2023-07-20T12:36:24;97387.94;;;30.37;23.88
21096;BME280;10706;49.036;12.112;2023-07-20T12:38:50;97388.16;;;29.44;25.10
21096;BME280;10706;49.036;12.112;2023-07-20T12:41:16;97385.53;;;30.66;24.40
21096;BME280;10706;49.036;12.112;2023-07-20T12:43:46;97381.03;;;30.54;23.03
21096;BME280;10706;49.036;12.112;2023-07-20T12:46:13;97372.97;;;31.06;23.26
21096;BME280;10706;49.036;12.112;2023-07-20T12:48:40;97385.53;;;29.52;24.50
21096;BME280;10706;49.036;12.112;2023-07-20T12:51:08;97371.88;;;29.59;25.62
21096;BME280;10706;49.036;12.112;2023-07-20T12:53:34;97376.97;;;28.48;26.44
21096;BME280;10706;49.036;12.112;2023-07-20T12:56:00;97371.16;;;30.19;24.57
21096;BME280;10706;49.036;12.112;2023-07-20T12:58:27;97364.09;;;30.52;23.25
21096;BME280;10706;49.036;12.112;2023-07-20T13:00:53;97365.25;;;30.47;23.16
21096;BME280;10706;49.036;12.112;2023-07-20T13:03:19;97364.28;;;29.75;23.72
21096;BME280;10706;49.036;12.112;2023-07-20T13:05:46;97367.41;;;29.74;24.79
21096;BME280;10706;49.036;12.112;2023-07-20T13:08:13;97363.69;;;29.89;23.46
21096;BME280;10706;49.036;12.112;2023-07-20T13:10:41;97365.63;;;30.83;24.40